createdAt,value
2019-05-21T00:01:12.254Z,28.87
2019-05-21T00:05:21.438Z,25.90
2019-05-21T00:09:30.278Z,23.93
2019-05-21T00:13:39.357Z,25.40
2019-05-21T00:17:48.167Z,22.37
2019-05-21T00:21:56.961Z,29.27
2019-05-21T00:26:05.837Z,24.60
2019-05-21T00:30:51.161Z,29.77
2019-05-21T00:35:48.998Z,28.27
2019-05-21T00:40:33.958Z,25.10
2019-05-21T00:44:43.813Z,34.37
2019-05-21T00:48:52.953Z,26.57
2019-05-21T00:53:02.066Z,29.40
2019-05-21T00:57:11.420Z,29.47
2019-05-21T01:01:20.629Z,30.23
2019-05-21T01:05:29.491Z,29.80
2019-05-21T01:09:38.634Z,28.57
2019-05-21T01:13:47.441Z,27.03
2019-05-21T01:17:56.235Z,30.47
2019-05-21T01:22:05.357Z,26.17
2019-05-21T01:26:14.289Z,33.33
2019-05-21T01:30:23.222Z,33.97
2019-05-21T01:34:32.264Z,28.03
2019-05-21T01:38:41.823Z,24.57
2019-05-21T01:42:50.722Z,25.83
2019-05-21T01:46:59.558Z,20.37
2019-05-21T01:51:08.419Z,20.40
2019-05-21T01:55:17.376Z,21.43
2019-05-21T01:59:26.194Z,17.80
2019-05-21T02:03:34.972Z,13.87
2019-05-21T02:07:43.753Z,14.20
2019-05-21T02:11:52.539Z,10.47
2019-05-21T02:16:01.716Z,10.10
2019-05-21T02:20:10.967Z,12.30
2019-05-21T02:24:19.831Z,11.60
2019-05-21T02:28:28.977Z,10.20
2019-05-21T02:32:37.822Z,14.23
2019-05-21T02:36:46.632Z,10.60
2019-05-21T02:40:55.433Z,9.70
2019-05-21T02:45:04.472Z,11.87
2019-05-21T02:49:13.632Z,9.83
2019-05-21T02:53:22.572Z,9.90
2019-05-21T02:57:43.414Z,10.70
2019-05-21T03:02:07.560Z,11.10
2019-05-21T03:06:16.410Z,10.50
2019-05-21T03:10:25.255Z,11.70
2019-05-21T03:14:34.095Z,10.37
2019-05-21T03:18:42.916Z,10.97
2019-05-21T03:22:51.702Z,9.77
2019-05-21T03:27:00.572Z,10.63
2019-05-21T03:31:09.738Z,9.90
2019-05-21T03:35:18.758Z,9.13
2019-05-21T03:39:27.914Z,9.43
2019-05-21T03:43:36.683Z,9.13
2019-05-21T03:47:45.473Z,10.73
2019-05-21T03:51:54.473Z,11.33
2019-05-21T03:56:03.327Z,9.53
2019-05-21T04:00:12.766Z,9.83
2019-05-21T04:04:21.566Z,8.50
2019-05-21T04:08:30.335Z,7.50
2019-05-21T04:12:39.106Z,7.60
2019-05-21T04:16:57.600Z,7.50
2019-05-21T04:21:06.365Z,6.87
2019-05-21T04:25:15.178Z,7.37
2019-05-21T04:29:23.961Z,4.60
2019-05-21T04:33:32.731Z,6.27
2019-05-21T04:37:41.491Z,5.43
2019-05-21T04:41:50.355Z,4.97
2019-05-21T04:45:59.299Z,5.90
2019-05-21T04:50:08.521Z,4.80
2019-05-21T04:54:17.364Z,6.30
2019-05-21T04:58:26.229Z,4.00
2019-05-21T05:02:35.473Z,4.17
2019-05-21T05:06:44.337Z,4.23
2019-05-21T05:10:53.107Z,3.20
2019-05-21T05:15:01.884Z,4.90
2019-05-21T05:19:10.743Z,23.70
2019-05-21T05:23:19.547Z,8.43
2019-05-21T05:27:28.677Z,6.97
2019-05-21T05:31:37.471Z,5.13
2019-05-21T05:35:46.281Z,5.97
2019-05-21T05:39:55.076Z,5.00
2019-05-21T05:44:04.114Z,4.20
2019-05-21T05:48:13.443Z,4.30
2019-05-21T05:52:22.232Z,4.90
2019-05-21T05:56:31.171Z,4.33
2019-05-21T06:00:40.300Z,5.30
2019-05-21T06:04:49.071Z,5.50
2019-05-21T06:08:57.852Z,6.50
2019-05-21T06:13:06.625Z,5.93
2019-05-21T06:17:15.858Z,6.10
2019-05-21T06:21:24.721Z,4.90
2019-05-21T06:25:33.579Z,4.53
2019-05-21T06:29:42.404Z,4.73
2019-05-21T06:33:51.387Z,5.70
2019-05-21T06:38:15.044Z,4.60
2019-05-21T06:42:10.851Z,5.87
2019-05-21T06:46:19.884Z,5.97
2019-05-21T06:50:28.965Z,5.00
2019-05-21T06:54:37.750Z,6.20
2019-05-21T06:58:46.879Z,6.30
2019-05-21T07:02:55.679Z,7.90
2019-05-21T07:07:04.947Z,5.60
2019-05-21T07:11:13.865Z,6.07
2019-05-21T07:15:22.915Z,5.40
2019-05-21T07:19:31.719Z,8.50
2019-05-21T07:23:40.511Z,9.70
2019-05-21T07:27:49.375Z,10.77
2019-05-21T07:31:58.159Z,12.47
2019-05-21T07:36:07.130Z,10.20
2019-05-21T07:40:16.453Z,12.43
2019-05-21T07:44:25.252Z,10.50
2019-05-21T07:48:34.137Z,13.00
2019-05-21T07:52:42.930Z,13.17
2019-05-21T07:56:51.744Z,13.33
2019-05-21T08:01:01.574Z,12.80
2019-05-21T08:05:10.777Z,15.23
2019-05-21T08:09:19.613Z,15.60
2019-05-21T08:13:28.408Z,15.40
2019-05-21T08:17:37.268Z,12.90
2019-05-21T08:21:46.174Z,11.20
2019-05-21T08:25:55.079Z,13.33
2019-05-21T08:30:04.327Z,21.70
2019-05-21T08:34:13.294Z,14.10
2019-05-21T08:38:22.162Z,14.83
2019-05-21T08:42:31.137Z,16.77
2019-05-21T08:46:39.921Z,18.43
2019-05-21T08:50:48.725Z,15.37
2019-05-21T08:54:57.560Z,15.70
2019-05-21T08:59:06.439Z,15.30
2019-05-21T09:03:15.327Z,20.13
2019-05-21T09:07:24.195Z,17.47
2019-05-21T09:11:32.974Z,17.13
2019-05-21T09:15:41.779Z,17.17
2019-05-21T09:19:50.599Z,18.77
2019-05-21T09:23:59.407Z,19.60
2019-05-21T09:28:08.242Z,20.17
2019-05-21T09:32:17.125Z,18.27
2019-05-21T09:36:25.919Z,19.50
2019-05-21T09:40:34.714Z,21.40
2019-05-21T09:44:43.703Z,19.13
2019-05-21T09:48:55.537Z,18.40
2019-05-21T09:53:03.277Z,22.27
2019-05-21T09:57:13.929Z,26.63
2019-05-21T10:01:28.934Z,23.13
2019-05-21T10:05:37.863Z,25.80
2019-05-21T10:09:46.942Z,18.23
2019-05-21T10:13:55.707Z,18.67
2019-05-21T10:18:04.999Z,15.20
2019-05-21T10:22:13.942Z,13.57
2019-05-21T10:26:22.802Z,13.47
2019-05-21T10:30:31.676Z,13.90
2019-05-21T10:34:40.545Z,12.73
2019-05-21T10:38:49.349Z,13.40
2019-05-21T10:42:58.146Z,13.40
2019-05-21T10:47:07.215Z,16.00
2019-05-21T10:51:16.032Z,19.20
2019-05-21T10:55:25.039Z,15.20
2019-05-21T10:59:34.093Z,21.30
2019-05-21T11:04:14.077Z,16.23
2019-05-21T11:08:24.776Z,17.50
2019-05-21T11:12:33.697Z,15.03
2019-05-21T11:16:42.670Z,19.27
2019-05-21T11:20:51.836Z,29.57
2019-05-21T11:25:00.721Z,72.93
2019-05-21T11:29:09.552Z,43.93
2019-05-21T11:33:18.547Z,38.07
2019-05-21T11:37:27.331Z,23.27
2019-05-21T11:41:36.566Z,16.93
2019-05-21T11:45:45.658Z,16.77
2019-05-21T11:49:54.463Z,15.10
2019-05-21T11:54:03.288Z,14.07
2019-05-21T11:58:12.325Z,12.33
2019-05-21T12:02:21.123Z,10.67
2019-05-21T12:06:29.951Z,9.77
2019-05-21T12:10:38.816Z,14.70
2019-05-21T12:14:47.621Z,12.80
2019-05-21T12:18:56.403Z,12.87
2019-05-21T12:23:05.574Z,12.77
2019-05-21T12:27:14.396Z,12.30
2019-05-21T12:31:23.663Z,10.13
2019-05-21T12:35:32.434Z,8.47
2019-05-21T12:39:41.547Z,8.83
2019-05-21T12:43:50.366Z,8.13
2019-05-21T12:47:59.223Z,7.33
2019-05-21T12:52:08.082Z,6.83
2019-05-21T12:56:16.854Z,6.43
2019-05-21T13:00:31.271Z,6.10
2019-05-21T13:04:40.087Z,6.43
2019-05-21T13:08:48.996Z,8.17
2019-05-21T13:12:57.835Z,7.10
2019-05-21T13:17:06.591Z,6.53
2019-05-21T13:21:15.710Z,6.60
2019-05-21T13:25:24.573Z,8.97
2019-05-21T13:29:33.396Z,9.63
2019-05-21T13:33:42.267Z,9.63
2019-05-21T13:37:51.421Z,12.33
2019-05-21T13:42:00.415Z,12.80
2019-05-21T13:46:09.441Z,14.10
2019-05-21T13:50:18.456Z,15.73
2019-05-21T13:54:27.410Z,14.10
2019-05-21T13:58:36.327Z,12.00
2019-05-21T14:02:45.206Z,15.87
2019-05-21T14:06:54.165Z,13.30
2019-05-21T14:11:03.319Z,16.93
2019-05-21T14:15:12.521Z,19.80
2019-05-21T14:19:21.315Z,17.37
2019-05-21T14:23:30.100Z,19.33
2019-05-21T14:27:44.409Z,19.80
2019-05-21T14:31:49.539Z,18.80
2019-05-21T14:35:58.314Z,20.37
2019-05-21T14:40:10.240Z,21.00
2019-05-21T14:44:22.327Z,23.20
2019-05-21T14:48:31.109Z,23.17
2019-05-21T14:52:39.929Z,22.93
2019-05-21T14:56:48.980Z,25.57
2019-05-21T15:00:58.716Z,25.87
2019-05-21T15:05:07.855Z,24.70
2019-05-21T15:09:16.937Z,23.10
2019-05-21T15:13:25.752Z,21.90
2019-05-21T15:17:34.547Z,23.17
2019-05-21T15:21:47.505Z,27.93
2019-05-21T15:25:56.363Z,27.47
2019-05-21T15:30:06.235Z,28.33
2019-05-21T15:34:15.147Z,31.20
2019-05-21T15:38:24.003Z,29.97
2019-05-21T15:42:32.870Z,50.37
2019-05-21T15:46:49.839Z,47.87
2019-05-21T15:50:52.297Z,30.17
2019-05-21T15:55:01.112Z,39.63
2019-05-21T15:59:10.049Z,32.37
2019-05-21T16:03:18.832Z,38.73
2019-05-21T16:07:27.699Z,34.60
2019-05-21T16:11:36.512Z,36.63
2019-05-21T16:15:45.631Z,40.23
2019-05-21T16:19:54.409Z,40.13
2019-05-21T16:24:03.348Z,34.97
2019-05-21T16:28:12.492Z,31.80
2019-05-21T16:32:21.333Z,34.00
2019-05-21T16:36:30.738Z,32.13
2019-05-21T16:40:40.013Z,33.60
2019-05-21T16:44:48.857Z,30.23
2019-05-21T16:48:57.824Z,74.67
2019-05-21T16:53:07.226Z,30.77
2019-05-21T16:57:16.314Z,29.07
2019-05-21T17:01:25.193Z,28.37
2019-05-21T17:05:34.158Z,29.27
2019-05-21T17:09:43.022Z,24.97
2019-05-21T17:13:51.811Z,27.70
2019-05-21T17:18:00.737Z,27.73
2019-05-21T17:22:09.548Z,25.37
2019-05-21T17:26:18.328Z,22.33
2019-05-21T17:30:27.255Z,21.87
2019-05-21T17:34:36.377Z,21.23
2019-05-21T17:38:45.325Z,23.57
2019-05-21T17:42:54.096Z,23.37
2019-05-21T17:47:02.884Z,20.37
2019-05-21T17:51:11.763Z,20.50
2019-05-21T17:55:20.685Z,21.03
2019-05-21T17:59:29.496Z,26.33
2019-05-21T18:03:38.603Z,19.97
2019-05-21T18:07:47.459Z,22.27
2019-05-21T18:11:56.327Z,23.97
2019-05-21T18:16:07.417Z,20.57
2019-05-21T18:20:18.034Z,20.37
2019-05-21T18:24:26.965Z,20.40
2019-05-21T18:28:36.463Z,21.97
2019-05-21T18:32:45.284Z,18.53
2019-05-21T18:36:54.131Z,21.27
2019-05-21T18:41:03.317Z,21.77
2019-05-21T18:45:12.453Z,19.23
2019-05-21T18:49:21.267Z,24.73
2019-05-21T18:53:31.223Z,19.27
2019-05-21T18:57:40.167Z,22.33
2019-05-21T19:01:48.999Z,22.97
2019-05-21T19:05:57.869Z,23.77
2019-05-21T19:10:07.308Z,26.03
2019-05-21T19:14:16.261Z,24.03
2019-05-21T19:18:25.209Z,23.17
2019-05-21T19:22:34.117Z,26.17
2019-05-21T19:26:44.148Z,24.77
2019-05-21T19:30:53.183Z,24.67
2019-05-21T19:35:02.062Z,29.53
2019-05-21T19:39:10.932Z,25.10
2019-05-21T19:43:19.791Z,25.23
2019-05-21T19:47:28.659Z,30.00
2019-05-21T19:51:37.455Z,26.03
2019-05-21T19:55:46.261Z,28.83
2019-05-21T19:59:55.117Z,26.13
2019-05-21T20:04:04.572Z,26.70
2019-05-21T20:08:13.623Z,25.03
2019-05-21T20:12:23.968Z,27.00
2019-05-21T20:16:34.434Z,27.20
2019-05-21T20:20:43.943Z,24.43
2019-05-21T20:24:53.069Z,24.87
2019-05-21T20:29:01.996Z,25.67
2019-05-21T20:33:11.827Z,25.20
2019-05-21T20:37:26.380Z,29.03
2019-05-21T20:41:36.559Z,30.60
2019-05-21T20:45:49.139Z,37.77
2019-05-21T20:49:58.366Z,33.40
2019-05-21T20:54:08.055Z,34.47
2019-05-21T20:58:17.020Z,31.53
2019-05-21T21:02:26.331Z,28.70
2019-05-21T21:06:36.342Z,30.43
2019-05-21T21:10:45.321Z,29.00
2019-05-21T21:14:54.180Z,25.07
2019-05-21T21:19:03.496Z,26.63
2019-05-21T21:23:14.227Z,34.77
2019-05-21T21:27:23.769Z,32.70
2019-05-21T21:31:33.050Z,34.00
2019-05-21T21:35:42.312Z,34.50
2019-05-21T21:39:51.167Z,40.93
2019-05-21T21:44:00.018Z,35.93
2019-05-21T21:48:09.854Z,33.97
2019-05-21T21:52:19.141Z,32.57
2019-05-21T21:56:28.059Z,35.10
2019-05-21T22:01:46.357Z,33.80
2019-05-21T22:05:55.432Z,36.67
2019-05-21T22:10:04.494Z,33.63
2019-05-21T22:14:14.148Z,32.87
2019-05-21T22:18:24.614Z,32.40
2019-05-21T22:22:33.470Z,46.13
2019-05-21T22:26:42.640Z,57.53
2019-05-21T22:30:51.669Z,53.47
2019-05-21T22:35:00.629Z,79.80
2019-05-21T22:39:16.697Z,40.90
2019-05-21T22:43:26.120Z,38.60
2019-05-21T22:47:34.928Z,40.53
2019-05-21T22:51:43.880Z,37.17
2019-05-21T22:55:52.831Z,28.70
2019-05-21T23:00:02.018Z,32.77
2019-05-21T23:04:11.342Z,33.00
2019-05-21T23:08:20.562Z,31.03
2019-05-21T23:12:30.351Z,29.13
2019-05-21T23:16:39.286Z,34.97
2019-05-21T23:20:49.291Z,34.77
2019-05-21T23:24:58.899Z,35.23
2019-05-21T23:29:08.645Z,39.30
2019-05-21T23:33:18.126Z,38.77
2019-05-21T23:37:28.565Z,35.63
2019-05-21T23:41:37.521Z,36.90
2019-05-21T23:45:46.367Z,37.53
2019-05-21T23:49:55.287Z,34.37
2019-05-21T23:54:04.598Z,35.70
2019-05-21T23:58:14.215Z,31.23
